sensor_id;sensor_type;location;lat;lon;timestamp;P1;durP1;ratioP1;P2;durP2;ratioP2
3217;SDS011;1621;49.702;8.618;2023-07-08T00:01:10;9.20;;;7.03;;
3217;SDS011;1621;49.702;8.618;2023-07-08T00:03:37;11.83;;;8.33;;
3217;SDS011;1621;49.702;8.618;2023-07-08T00:06:03;10.47;;;7.97;;
3217;SDS011;1621;49.702;8.618;2023-07-08T00:08:30;10.63;;;7.60;;
3217;SDS011;1621;49.702;8.618;2023-07-08T00:10:56;11.57;;;6.80;;
3217;SDS011;1621;49.702;8.618;2023-07-08T00:13:24;10.87;;;7.80;;
3217;SDS011;1621;49.702;8.618;2023-07-08T00:15:50;9.80;;;7.43;;
3217;SDS011;1621;49.702;8.618;2023-07-08T00:18:17;11.20;;;7.60;;
3217;SDS011;1621;49.702;8.618;2023-07-08T00:20:44;9.50;;;7.07;;
3217;SDS011;1621;49.702;8.618;2023-07-08T00:23:11;11.00;;;6.80;;
3217;SDS011;1621;49.702;8.618;2023-07-08T00:25:38;9.80;;;6.63;;
3217;SDS011;1621;49.702;8.618;2023-07-08T00:28:07;11.40;;;7.87;;
3217;SDS011;1621;49.702;8.618;2023-07-08T00:30:35;8.90;;;6.70;;
3217;SDS011;1621;49.702;8.618;2023-07-08T00:33:01;11.80;;;7.90;;
3217;SDS011;1621;49.702;8.618;2023-07-08T00:35:28;10.67;;;7.50;;
3217;SDS011;1621;49.702;8.618;2023-07-08T00:37:56;13.93;;;7.50;;
3217;SDS011;1621;49.702;8.618;2023-07-08T00:40:27;10.30;;;7.50;;
3217;SDS011;1621;49.702;8.618;2023-07-08T00:42:53;12.50;;;7.40;;
3217;SDS011;1621;49.702;8.618;2023-07-08T00:45:29;11.30;;;7.40;;
3217;SDS011;1621;49.702;8.618;2023-07-08T00:48:00;13.73;;;6.83;;
3217;SDS011;1621;49.702;8.618;2023-07-08T00:50:28;13.23;;;8.30;;
3217;SDS011;1621;49.702;8.618;2023-07-08T00:55:36;12.33;;;9.07;;
3217;SDS011;1621;49.702;8.618;2023-07-08T00:58:02;14.90;;;9.70;;
3217;SDS011;1621;49.702;8.618;2023-07-08T01:00:28;13.90;;;9.13;;
3217;SDS011;1621;49.702;8.618;2023-07-08T01:02:55;13.10;;;8.77;;
3217;SDS011;1621;49.702;8.618;2023-07-08T01:05:24;11.80;;;8.63;;
3217;SDS011;1621;49.702;8.618;2023-07-08T01:07:57;13.47;;;9.07;;
3217;SDS011;1621;49.702;8.618;2023-07-08T01:10:27;12.87;;;8.13;;
3217;SDS011;1621;49.702;8.618;2023-07-08T01:12:54;11.93;;;9.13;;
3217;SDS011;1621;49.702;8.618;2023-07-08T01:15:23;11.93;;;6.97;;
3217;SDS011;1621;49.702;8.618;2023-07-08T01:17:51;10.30;;;7.00;;
3217;SDS011;1621;49.702;8.618;2023-07-08T01:20:19;11.30;;;7.63;;
3217;SDS011;1621;49.702;8.618;2023-07-08T01:22:46;10.53;;;7.50;;
3217;SDS011;1621;49.702;8.618;2023-07-08T01:25:13;9.20;;;7.30;;
3217;SDS011;1621;49.702;8.618;2023-07-08T01:27:40;9.83;;;7.27;;
3217;SDS011;1621;49.702;8.618;2023-07-08T01:30:07;10.87;;;7.23;;
3217;SDS011;1621;49.702;8.618;2023-07-08T01:32:34;9.70;;;6.90;;
3217;SDS011;1621;49.702;8.618;2023-07-08T01:35:02;10.33;;;7.00;;
3217;SDS011;1621;49.702;8.618;2023-07-08T01:37:30;11.50;;;8.10;;
3217;SDS011;1621;49.702;8.618;2023-07-08T01:39:58;14.77;;;9.57;;
3217;SDS011;1621;49.702;8.618;2023-07-08T01:42:39;13.93;;;9.97;;
3217;SDS011;1621;49.702;8.618;2023-07-08T01:45:08;21.40;;;9.97;;
3217;SDS011;1621;49.702;8.618;2023-07-08T01:47:36;17.87;;;10.23;;
3217;SDS011;1621;49.702;8.618;2023-07-08T01:50:02;14.83;;;9.90;;
3217;SDS011;1621;49.702;8.618;2023-07-08T01:52:28;15.77;;;9.57;;
3217;SDS011;1621;49.702;8.618;2023-07-08T01:54:55;15.80;;;10.60;;
3217;SDS011;1621;49.702;8.618;2023-07-08T01:57:23;16.37;;;10.67;;
3217;SDS011;1621;49.702;8.618;2023-07-08T01:59:49;14.43;;;9.77;;
3217;SDS011;1621;49.702;8.618;2023-07-08T02:02:15;14.17;;;9.90;;
3217;SDS011;1621;49.702;8.618;2023-07-08T02:04:42;12.33;;;9.00;;
3217;SDS011;1621;49.702;8.618;2023-07-08T02:07:08;13.07;;;9.00;;
3217;SDS011;1621;49.702;8.618;2023-07-08T02:09:34;12.63;;;8.57;;
3217;SDS011;1621;49.702;8.618;2023-07-08T02:12:00;13.30;;;9.03;;
3217;SDS011;1621;49.702;8.618;2023-07-08T02:14:28;13.90;;;9.17;;
3217;SDS011;1621;49.702;8.618;2023-07-08T02:16:54;12.37;;;8.50;;
3217;SDS011;1621;49.702;8.618;2023-07-08T02:19:21;11.00;;;7.23;;
3217;SDS011;1621;49.702;8.618;2023-07-08T02:21:47;9.30;;;6.70;;
3217;SDS011;1621;49.702;8.618;2023-07-08T02:24:13;10.20;;;7.43;;
3217;SDS011;1621;49.702;8.618;2023-07-08T02:26:41;8.23;;;6.53;;
3217;SDS011;1621;49.702;8.618;2023-07-08T02:29:08;8.57;;;6.27;;
3217;SDS011;1621;49.702;8.618;2023-07-08T02:31:35;9.10;;;6.30;;
3217;SDS011;1621;49.702;8.618;2023-07-08T02:34:01;10.10;;;6.30;;
3217;SDS011;1621;49.702;8.618;2023-07-08T02:36:28;9.70;;;6.20;;
3217;SDS011;1621;49.702;8.618;2023-07-08T02:38:54;10.30;;;6.40;;
3217;SDS011;1621;49.702;8.618;2023-07-08T02:41:20;8.90;;;6.23;;
3217;SDS011;1621;49.702;8.618;2023-07-08T02:43:47;13.60;;;6.07;;
3217;SDS011;1621;49.702;8.618;2023-07-08T02:46:13;9.63;;;6.57;;
3217;SDS011;1621;49.702;8.618;2023-07-08T02:48:40;11.07;;;6.97;;
3217;SDS011;1621;49.702;8.618;2023-07-08T02:51:07;7.67;;;5.83;;
3217;SDS011;1621;49.702;8.618;2023-07-08T02:53:34;11.47;;;6.37;;
3217;SDS011;1621;49.702;8.618;2023-07-08T02:56:01;9.70;;;7.20;;
3217;SDS011;1621;49.702;8.618;2023-07-08T02:58:27;11.07;;;7.50;;
3217;SDS011;1621;49.702;8.618;2023-07-08T03:00:54;12.63;;;9.20;;
3217;SDS011;1621;49.702;8.618;2023-07-08T03:03:21;14.10;;;8.80;;
3217;SDS011;1621;49.702;8.618;2023-07-08T03:05:54;15.60;;;9.20;;
3217;SDS011;1621;49.702;8.618;2023-07-08T03:08:21;16.07;;;10.43;;
3217;SDS011;1621;49.702;8.618;2023-07-08T03:10:47;14.40;;;10.20;;
3217;SDS011;1621;49.702;8.618;2023-07-08T03:13:13;14.23;;;8.80;;
3217;SDS011;1621;49.702;8.618;2023-07-08T03:15:40;12.00;;;9.10;;
3217;SDS011;1621;49.702;8.618;2023-07-08T03:18:06;18.90;;;10.33;;
3217;SDS011;1621;49.702;8.618;2023-07-08T03:20:33;14.43;;;10.20;;
3217;SDS011;1621;49.702;8.618;2023-07-08T03:23:02;16.80;;;10.30;;
3217;SDS011;1621;49.702;8.618;2023-07-08T03:25:29;25.53;;;11.63;;
3217;SDS011;1621;49.702;8.618;2023-07-08T03:27:55;16.77;;;9.87;;
3217;SDS011;1621;49.702;8.618;2023-07-08T03:30:22;15.57;;;10.63;;
3217;SDS011;1621;49.702;8.618;2023-07-08T03:32:48;15.60;;;10.30;;
3217;SDS011;1621;49.702;8.618;2023-07-08T03:35:15;15.70;;;10.27;;
3217;SDS011;1621;49.702;8.618;2023-07-08T03:37:41;27.80;;;12.50;;
3217;SDS011;1621;49.702;8.618;2023-07-08T03:40:09;16.70;;;10.00;;
3217;SDS011;1621;49.702;8.618;2023-07-08T03:42:36;17.50;;;10.93;;
3217;SDS011;1621;49.702;8.618;2023-07-08T03:45:03;15.60;;;10.00;;
3217;SDS011;1621;49.702;8.618;2023-07-08T03:47:29;17.73;;;9.33;;
3217;SDS011;1621;49.702;8.618;2023-07-08T03:49:55;11.20;;;7.70;;
3217;SDS011;1621;49.702;8.618;2023-07-08T03:52:21;9.27;;;6.50;;
3217;SDS011;1621;49.702;8.618;2023-07-08T03:54:48;9.00;;;6.07;;
3217;SDS011;1621;49.702;8.618;2023-07-08T03:57:15;9.27;;;6.47;;
3217;SDS011;1621;49.702;8.618;2023-07-08T03:59:42;9.50;;;6.40;;
3217;SDS011;1621;49.702;8.618;2023-07-08T04:02:08;9.80;;;6.87;;
3217;SDS011;1621;49.702;8.618;2023-07-08T04:04:35;10.17;;;6.63;;
3217;SDS011;1621;49.702;8.618;2023-07-08T04:07:02;11.53;;;6.77;;
3217;SDS011;1621;49.702;8.618;2023-07-08T04:09:28;11.60;;;7.40;;
3217;SDS011;1621;49.702;8.618;2023-07-08T04:11:55;12.20;;;7.77;;
3217;SDS011;1621;49.702;8.618;2023-07-08T04:14:24;13.47;;;8.23;;
3217;SDS011;1621;49.702;8.618;2023-07-08T04:16:52;12.80;;;7.77;;
3217;SDS011;1621;49.702;8.618;2023-07-08T04:19:22;13.40;;;8.30;;
3217;SDS011;1621;49.702;8.618;2023-07-08T04:21:48;13.70;;;8.07;;
3217;SDS011;1621;49.702;8.618;2023-07-08T04:24:15;12.17;;;8.23;;
3217;SDS011;1621;49.702;8.618;2023-07-08T04:26:41;13.90;;;8.43;;
3217;SDS011;1621;49.702;8.618;2023-07-08T04:29:11;13.00;;;8.93;;
3217;SDS011;1621;49.702;8.618;2023-07-08T04:31:39;13.13;;;9.53;;
3217;SDS011;1621;49.702;8.618;2023-07-08T04:34:06;12.57;;;9.03;;
3217;SDS011;1621;49.702;8.618;2023-07-08T04:36:32;15.47;;;9.20;;
3217;SDS011;1621;49.702;8.618;2023-07-08T04:38:59;16.60;;;9.67;;
3217;SDS011;1621;49.702;8.618;2023-07-08T04:41:25;16.40;;;8.87;;
3217;SDS011;1621;49.702;8.618;2023-07-08T04:43:51;14.80;;;10.30;;
3217;SDS011;1621;49.702;8.618;2023-07-08T04:46:19;12.57;;;9.63;;
3217;SDS011;1621;49.702;8.618;2023-07-08T04:48:47;14.00;;;8.70;;
3217;SDS011;1621;49.702;8.618;2023-07-08T04:51:13;12.80;;;9.17;;
3217;SDS011;1621;49.702;8.618;2023-07-08T04:53:40;13.77;;;8.43;;
3217;SDS011;1621;49.702;8.618;2023-07-08T04:56:07;16.70;;;10.60;;
3217;SDS011;1621;49.702;8.618;2023-07-08T04:58:33;15.00;;;10.00;;
3217;SDS011;1621;49.702;8.618;2023-07-08T05:01:00;16.30;;;10.67;;
3217;SDS011;1621;49.702;8.618;2023-07-08T05:03:26;15.10;;;10.53;;
3217;SDS011;1621;49.702;8.618;2023-07-08T05:05:54;12.77;;;8.90;;
3217;SDS011;1621;49.702;8.618;2023-07-08T05:08:20;13.23;;;9.33;;
3217;SDS011;1621;49.702;8.618;2023-07-08T05:10:46;14.20;;;9.33;;
3217;SDS011;1621;49.702;8.618;2023-07-08T05:13:12;17.37;;;10.77;;
3217;SDS011;1621;49.702;8.618;2023-07-08T05:15:39;16.50;;;10.00;;
3217;SDS011;1621;49.702;8.618;2023-07-08T05:18:05;13.63;;;9.63;;
3217;SDS011;1621;49.702;8.618;2023-07-08T05:20:31;14.93;;;9.83;;
3217;SDS011;1621;49.702;8.618;2023-07-08T05:23:01;17.70;;;9.20;;
3217;SDS011;1621;49.702;8.618;2023-07-08T05:25:30;12.57;;;8.93;;
3217;SDS011;1621;49.702;8.618;2023-07-08T05:27:57;14.10;;;9.97;;
3217;SDS011;1621;49.702;8.618;2023-07-08T05:30:23;13.27;;;8.87;;
3217;SDS011;1621;49.702;8.618;2023-07-08T05:32:49;16.63;;;10.17;;
3217;SDS011;1621;49.702;8.618;2023-07-08T05:35:15;14.60;;;9.07;;
3217;SDS011;1621;49.702;8.618;2023-07-08T05:37:42;15.63;;;10.20;;
3217;SDS011;1621;49.702;8.618;2023-07-08T05:40:13;18.03;;;11.83;;
3217;SDS011;1621;49.702;8.618;2023-07-08T05:42:39;15.13;;;10.30;;
3217;SDS011;1621;49.702;8.618;2023-07-08T05:45:06;15.73;;;9.97;;
3217;SDS011;1621;49.702;8.618;2023-07-08T05:47:35;15.30;;;8.80;;
3217;SDS011;1621;49.702;8.618;2023-07-08T05:50:01;12.70;;;9.23;;
3217;SDS011;1621;49.702;8.618;2023-07-08T05:52:27;14.37;;;9.40;;
3217;SDS011;1621;49.702;8.618;2023-07-08T05:54:54;12.90;;;8.77;;
3217;SDS011;1621;49.702;8.618;2023-07-08T05:57:22;12.77;;;9.27;;
3217;SDS011;1621;49.702;8.618;2023-07-08T05:59:49;15.07;;;9.40;;
3217;SDS011;1621;49.702;8.618;2023-07-08T06:02:15;12.90;;;9.13;;
3217;SDS011;1621;49.702;8.618;2023-07-08T06:04:42;14.30;;;9.30;;
3217;SDS011;1621;49.702;8.618;2023-07-08T06:07:08;13.30;;;9.27;;
3217;SDS011;1621;49.702;8.618;2023-07-08T06:09:35;11.77;;;8.67;;
3217;SDS011;1621;49.702;8.618;2023-07-08T06:12:01;13.17;;;9.00;;
3217;SDS011;1621;49.702;8.618;2023-07-08T06:14:28;13.47;;;9.67;;
3217;SDS011;1621;49.702;8.618;2023-07-08T06:16:55;13.37;;;9.77;;
3217;SDS011;1621;49.702;8.618;2023-07-08T06:19:21;14.83;;;8.63;;
3217;SDS011;1621;49.702;8.618;2023-07-08T06:21:48;12.73;;;8.83;;
3217;SDS011;1621;49.702;8.618;2023-07-08T06:24:14;14.57;;;9.07;;
3217;SDS011;1621;49.702;8.618;2023-07-08T06:26:40;15.60;;;10.03;;
3217;SDS011;1621;49.702;8.618;2023-07-08T06:29:06;12.97;;;9.43;;
3217;SDS011;1621;49.702;8.618;2023-07-08T06:31:34;13.13;;;8.93;;
3217;SDS011;1621;49.702;8.618;2023-07-08T06:34:00;14.20;;;9.87;;
3217;SDS011;1621;49.702;8.618;2023-07-08T06:36:27;12.47;;;8.70;;
3217;SDS011;1621;49.702;8.618;2023-07-08T06:38:53;16.60;;;9.90;;
3217;SDS011;1621;49.702;8.618;2023-07-08T06:41:19;17.03;;;10.03;;
3217;SDS011;1621;49.702;8.618;2023-07-08T06:43:46;15.80;;;9.57;;
3217;SDS011;1621;49.702;8.618;2023-07-08T06:46:12;13.17;;;9.00;;
3217;SDS011;1621;49.702;8.618;2023-07-08T06:48:40;13.57;;;9.70;;
3217;SDS011;1621;49.702;8.618;2023-07-08T06:51:06;14.27;;;8.60;;
3217;SDS011;1621;49.702;8.618;2023-07-08T06:53:32;12.23;;;7.93;;
3217;SDS011;1621;49.702;8.618;2023-07-08T06:55:59;16.03;;;8.50;;
3217;SDS011;1621;49.702;8.618;2023-07-08T06:58:25;14.33;;;8.63;;
3217;SDS011;1621;49.702;8.618;2023-07-08T07:00:52;18.53;;;8.47;;
3217;SDS011;1621;49.702;8.618;2023-07-08T07:03:18;21.97;;;7.77;;
3217;SDS011;1621;49.702;8.618;2023-07-08T07:05:45;64.10;;;26.00;;
3217;SDS011;1621;49.702;8.618;2023-07-08T07:08:12;45.97;;;21.60;;
3217;SDS011;1621;49.702;8.618;2023-07-08T07:10:38;40.50;;;19.60;;
3217;SDS011;1621;49.702;8.618;2023-07-08T07:13:04;16.63;;;11.00;;
3217;SDS011;1621;49.702;8.618;2023-07-08T07:15:31;17.17;;;9.53;;
3217;SDS011;1621;49.702;8.618;2023-07-08T07:17:57;18.70;;;9.87;;
3217;SDS011;1621;49.702;8.618;2023-07-08T07:20:24;14.73;;;9.90;;
3217;SDS011;1621;49.702;8.618;2023-07-08T07:22:52;15.63;;;8.33;;
3217;SDS011;1621;49.702;8.618;2023-07-08T07:25:18;11.80;;;8.43;;
3217;SDS011;1621;49.702;8.618;2023-07-08T07:27:45;15.33;;;9.70;;
3217;SDS011;1621;49.702;8.618;2023-07-08T07:30:11;10.50;;;8.23;;
3217;SDS011;1621;49.702;8.618;2023-07-08T07:32:40;12.00;;;8.90;;
3217;SDS011;1621;49.702;8.618;2023-07-08T07:35:07;13.33;;;9.07;;
3217;SDS011;1621;49.702;8.618;2023-07-08T07:37:37;15.10;;;8.17;;
3217;SDS011;1621;49.702;8.618;2023-07-08T07:40:06;11.30;;;7.80;;
3217;SDS011;1621;49.702;8.618;2023-07-08T07:42:37;11.83;;;8.17;;
3217;SDS011;1621;49.702;8.618;2023-07-08T07:45:04;13.57;;;8.27;;
3217;SDS011;1621;49.702;8.618;2023-07-08T07:47:30;11.67;;;8.30;;
3217;SDS011;1621;49.702;8.618;2023-07-08T07:49:56;14.13;;;8.93;;
3217;SDS011;1621;49.702;8.618;2023-07-08T07:52:23;11.87;;;8.03;;
3217;SDS011;1621;49.702;8.618;2023-07-08T07:54:50;11.43;;;8.00;;
3217;SDS011;1621;49.702;8.618;2023-07-08T07:57:18;11.97;;;7.90;;
3217;SDS011;1621;49.702;8.618;2023-07-08T07:59:44;14.50;;;8.23;;
3217;SDS011;1621;49.702;8.618;2023-07-08T08:02:11;11.47;;;8.73;;
3217;SDS011;1621;49.702;8.618;2023-07-08T08:04:37;10.80;;;7.30;;
3217;SDS011;1621;49.702;8.618;2023-07-08T08:07:04;11.97;;;8.03;;
3217;SDS011;1621;49.702;8.618;2023-07-08T08:09:30;14.97;;;7.90;;
3217;SDS011;1621;49.702;8.618;2023-07-08T08:11:56;17.00;;;8.87;;
3217;SDS011;1621;49.702;8.618;2023-07-08T08:14:24;13.33;;;8.90;;
3217;SDS011;1621;49.702;8.618;2023-07-08T08:16:50;12.80;;;8.17;;
3217;SDS011;1621;49.702;8.618;2023-07-08T08:19:16;12.60;;;7.63;;
3217;SDS011;1621;49.702;8.618;2023-07-08T08:21:43;13.03;;;7.90;;
3217;SDS011;1621;49.702;8.618;2023-07-08T08:24:09;10.67;;;7.97;;
3217;SDS011;1621;49.702;8.618;2023-07-08T08:26:35;14.70;;;8.80;;
3217;SDS011;1621;49.702;8.618;2023-07-08T08:29:02;11.37;;;7.97;;
3217;SDS011;1621;49.702;8.618;2023-07-08T08:31:29;15.90;;;8.70;;
3217;SDS011;1621;49.702;8.618;2023-07-08T08:33:56;10.83;;;7.50;;
3217;SDS011;1621;49.702;8.618;2023-07-08T08:36:22;10.63;;;6.93;;
3217;SDS011;1621;49.702;8.618;2023-07-08T08:38:49;12.00;;;7.87;;
3217;SDS011;1621;49.702;8.618;2023-07-08T08:41:16;10.57;;;7.40;;
3217;SDS011;1621;49.702;8.618;2023-07-08T08:43:42;11.20;;;7.20;;
3217;SDS011;1621;49.702;8.618;2023-07-08T08:46:10;11.17;;;6.97;;
3217;SDS011;1621;49.702;8.618;2023-07-08T08:48:46;10.23;;;6.30;;
3217;SDS011;1621;49.702;8.618;2023-07-08T08:51:14;10.60;;;7.33;;
3217;SDS011;1621;49.702;8.618;2023-07-08T08:53:41;9.33;;;6.50;;
3217;SDS011;1621;49.702;8.618;2023-07-08T08:56:09;11.30;;;6.50;;
3217;SDS011;1621;49.702;8.618;2023-07-08T08:58:38;10.33;;;6.77;;
3217;SDS011;1621;49.702;8.618;2023-07-08T09:01:08;9.83;;;6.53;;
3217;SDS011;1621;49.702;8.618;2023-07-08T09:03:39;12.30;;;6.60;;
3217;SDS011;1621;49.702;8.618;2023-07-08T09:06:12;8.10;;;6.00;;
3217;SDS011;1621;49.702;8.618;2023-07-08T09:08:38;8.37;;;5.30;;
3217;SDS011;1621;49.702;8.618;2023-07-08T09:11:09;10.47;;;4.60;;
3217;SDS011;1621;49.702;8.618;2023-07-08T09:13:36;8.60;;;4.73;;
3217;SDS011;1621;49.702;8.618;2023-07-08T09:16:04;9.90;;;4.80;;
3217;SDS011;1621;49.702;8.618;2023-07-08T09:18:32;9.10;;;4.90;;
3217;SDS011;1621;49.702;8.618;2023-07-08T09:21:01;6.60;;;5.13;;
3217;SDS011;1621;49.702;8.618;2023-07-08T09:23:32;9.97;;;5.47;;
3217;SDS011;1621;49.702;8.618;2023-07-08T09:25:59;14.27;;;6.23;;
3217;SDS011;1621;49.702;8.618;2023-07-08T09:28:37;8.50;;;4.97;;
3217;SDS011;1621;49.702;8.618;2023-07-08T09:31:04;10.03;;;5.90;;
3217;SDS011;1621;49.702;8.618;2023-07-08T09:33:31;8.27;;;5.53;;
3217;SDS011;1621;49.702;8.618;2023-07-08T09:35:59;8.70;;;4.83;;
3217;SDS011;1621;49.702;8.618;2023-07-08T09:38:29;10.00;;;5.53;;
3217;SDS011;1621;49.702;8.618;2023-07-08T09:40:59;8.50;;;6.23;;
3217;SDS011;1621;49.702;8.618;2023-07-08T09:43:26;7.43;;;4.80;;
3217;SDS011;1621;49.702;8.618;2023-07-08T09:45:55;7.77;;;4.70;;
3217;SDS011;1621;49.702;8.618;2023-07-08T09:48:24;9.10;;;4.57;;
3217;SDS011;1621;49.702;8.618;2023-07-08T09:50:51;9.43;;;5.87;;
3217;SDS011;1621;49.702;8.618;2023-07-08T09:53:17;8.53;;;5.00;;
3217;SDS011;1621;49.702;8.618;2023-07-08T09:55:45;7.67;;;5.30;;
3217;SDS011;1621;49.702;8.618;2023-07-08T09:58:13;7.33;;;4.50;;
3217;SDS011;1621;49.702;8.618;2023-07-08T10:00:40;9.07;;;5.07;;
3217;SDS011;1621;49.702;8.618;2023-07-08T10:03:08;7.57;;;4.87;;
3217;SDS011;1621;49.702;8.618;2023-07-08T10:05:38;9.53;;;5.23;;
3217;SDS011;1621;49.702;8.618;2023-07-08T10:08:10;9.93;;;5.27;;
3217;SDS011;1621;49.702;8.618;2023-07-08T10:10:38;7.50;;;4.40;;
3217;SDS011;1621;49.702;8.618;2023-07-08T10:13:06;6.23;;;4.60;;
3217;SDS011;1621;49.702;8.618;2023-07-08T10:15:37;8.87;;;5.90;;
3217;SDS011;1621;49.702;8.618;2023-07-08T10:18:04;7.67;;;4.60;;
3217;SDS011;1621;49.702;8.618;2023-07-08T10:20:35;7.07;;;5.43;;
3217;SDS011;1621;49.702;8.618;2023-07-08T10:23:05;7.50;;;5.40;;
3217;SDS011;1621;49.702;8.618;2023-07-08T10:25:34;7.93;;;5.73;;
3217;SDS011;1621;49.702;8.618;2023-07-08T10:28:07;7.40;;;4.73;;
3217;SDS011;1621;49.702;8.618;2023-07-08T10:30:41;7.30;;;4.83;;
3217;SDS011;1621;49.702;8.618;2023-07-08T10:33:16;9.70;;;5.30;;
3217;SDS011;1621;49.702;8.618;2023-07-08T10:35:50;10.93;;;5.20;;
3217;SDS011;1621;49.702;8.618;2023-07-08T10:38:24;10.90;;;5.77;;
3217;SDS011;1621;49.702;8.618;2023-07-08T10:40:53;8.80;;;5.13;;
3217;SDS011;1621;49.702;8.618;2023-07-08T10:43:29;9.43;;;5.60;;
3217;SDS011;1621;49.702;8.618;2023-07-08T10:45:59;7.50;;;5.13;;
3217;SDS011;1621;49.702;8.618;2023-07-08T10:48:45;6.33;;;4.70;;
3217;SDS011;1621;49.702;8.618;2023-07-08T10:51:16;11.43;;;4.90;;
3217;SDS011;1621;49.702;8.618;2023-07-08T10:53:52;7.80;;;5.40;;
3217;SDS011;1621;49.702;8.618;2023-07-08T10:56:23;7.20;;;4.70;;
3217;SDS011;1621;49.702;8.618;2023-07-08T10:59:10;8.77;;;5.40;;
3217;SDS011;1621;49.702;8.618;2023-07-08T11:01:40;7.57;;;4.77;;
3217;SDS011;1621;49.702;8.618;2023-07-08T11:04:22;8.47;;;5.80;;
3217;SDS011;1621;49.702;8.618;2023-07-08T11:06:53;9.10;;;5.10;;
3217;SDS011;1621;49.702;8.618;2023-07-08T11:09:22;11.40;;;5.30;;
3217;SDS011;1621;49.702;8.618;2023-07-08T11:11:51;9.03;;;5.20;;
3217;SDS011;1621;49.702;8.618;2023-07-08T11:14:22;12.73;;;5.30;;
3217;SDS011;1621;49.702;8.618;2023-07-08T11:16:51;10.50;;;5.37;;
3217;SDS011;1621;49.702;8.618;2023-07-08T11:19:19;8.90;;;5.03;;
3217;SDS011;1621;49.702;8.618;2023-07-08T11:21:48;6.80;;;4.80;;
3217;SDS011;1621;49.702;8.618;2023-07-08T11:24:17;9.27;;;5.50;;
3217;SDS011;1621;49.702;8.618;2023-07-08T11:26:48;9.00;;;4.87;;
3217;SDS011;1621;49.702;8.618;2023-07-08T11:29:17;10.17;;;5.10;;
3217;SDS011;1621;49.702;8.618;2023-07-08T11:31:45;6.90;;;4.90;;
3217;SDS011;1621;49.702;8.618;2023-07-08T11:34:12;6.37;;;4.60;;
3217;SDS011;1621;49.702;8.618;2023-07-08T11:36:40;8.17;;;5.10;;
3217;SDS011;1621;49.702;8.618;2023-07-08T11:41:49;9.40;;;4.77;;
3217;SDS011;1621;49.702;8.618;2023-07-08T11:44:20;11.70;;;4.73;;
3217;SDS011;1621;49.702;8.618;2023-07-08T11:46:54;7.10;;;4.60;;
3217;SDS011;1621;49.702;8.618;2023-07-08T11:49:22;8.70;;;4.13;;
3217;SDS011;1621;49.702;8.618;2023-07-08T11:51:49;10.93;;;4.40;;
3217;SDS011;1621;49.702;8.618;2023-07-08T11:54:19;7.13;;;4.63;;
3217;SDS011;1621;49.702;8.618;2023-07-08T11:56:46;7.73;;;5.17;;
3217;SDS011;1621;49.702;8.618;2023-07-08T11:59:15;10.67;;;4.90;;
3217;SDS011;1621;49.702;8.618;2023-07-08T12:01:46;5.63;;;4.30;;
3217;SDS011;1621;49.702;8.618;2023-07-08T12:04:23;7.10;;;3.90;;
3217;SDS011;1621;49.702;8.618;2023-07-08T12:06:52;8.23;;;4.70;;
3217;SDS011;1621;49.702;8.618;2023-07-08T12:09:25;9.13;;;3.43;;
3217;SDS011;1621;49.702;8.618;2023-07-08T12:11:53;11.20;;;3.70;;
3217;SDS011;1621;49.702;8.618;2023-07-08T12:14:20;8.50;;;4.37;;
3217;SDS011;1621;49.702;8.618;2023-07-08T12:16:47;6.73;;;4.33;;
3217;SDS011;1621;49.702;8.618;2023-07-08T12:19:15;6.10;;;4.00;;
3217;SDS011;1621;49.702;8.618;2023-07-08T12:21:43;11.60;;;4.17;;
3217;SDS011;1621;49.702;8.618;2023-07-08T12:24:10;6.23;;;3.50;;
3217;SDS011;1621;49.702;8.618;2023-07-08T12:26:38;7.23;;;3.90;;
3217;SDS011;1621;49.702;8.618;2023-07-08T12:29:05;6.80;;;3.63;;
3217;SDS011;1621;49.702;8.618;2023-07-08T12:31:31;4.90;;;3.37;;
3217;SDS011;1621;49.702;8.618;2023-07-08T12:33:58;7.20;;;3.63;;
3217;SDS011;1621;49.702;8.618;2023-07-08T12:36:25;6.20;;;3.67;;
3217;SDS011;1621;49.702;8.618;2023-07-08T12:38:54;6.97;;;4.30;;
3217;SDS011;1621;49.702;8.618;2023-07-08T12:41:22;6.47;;;3.23;;
3217;SDS011;1621;49.702;8.618;2023-07-08T12:43:48;6.97;;;4.10;;
3217;SDS011;1621;49.702;8.618;2023-07-08T12:46:16;5.43;;;3.67;;
3217;SDS011;1621;49.702;8.618;2023-07-08T12:48:42;7.80;;;3.80;;
3217;SDS011;1621;49.702;8.618;2023-07-08T12:51:10;6.63;;;3.63;;
3217;SDS011;1621;49.702;8.618;2023-07-08T12:53:37;5.93;;;3.43;;
3217;SDS011;1621;49.702;8.618;2023-07-08T12:56:04;6.17;;;3.70;;
3217;SDS011;1621;49.702;8.618;2023-07-08T12:58:31;5.90;;;3.87;;
3217;SDS011;1621;49.702;8.618;2023-07-08T13:00:59;5.10;;;3.77;;
3217;SDS011;1621;49.702;8.618;2023-07-08T13:03:27;11.70;;;3.53;;
3217;SDS011;1621;49.702;8.618;2023-07-08T13:05:54;4.30;;;3.20;;
3217;SDS011;1621;49.702;8.618;2023-07-08T13:08:22;7.50;;;4.10;;
3217;SDS011;1621;49.702;8.618;2023-07-08T13:10:49;12.90;;;4.00;;
3217;SDS011;1621;49.702;8.618;2023-07-08T13:13:18;7.70;;;3.80;;
3217;SDS011;1621;49.702;8.618;2023-07-08T13:15:46;4.60;;;3.17;;
3217;SDS011;1621;49.702;8.618;2023-07-08T13:18:13;8.23;;;4.03;;
3217;SDS011;1621;49.702;8.618;2023-07-08T13:20:40;5.87;;;3.20;;
3217;SDS011;1621;49.702;8.618;2023-07-08T13:23:07;7.10;;;3.50;;
3217;SDS011;1621;49.702;8.618;2023-07-08T13:25:36;5.80;;;3.60;;
3217;SDS011;1621;49.702;8.618;2023-07-08T13:28:17;3.80;;;2.70;;
3217;SDS011;1621;49.702;8.618;2023-07-08T13:30:50;7.10;;;3.70;;
3217;SDS011;1621;49.702;8.618;2023-07-08T13:33:17;7.20;;;3.20;;
3217;SDS011;1621;49.702;8.618;2023-07-08T13:35:44;7.20;;;4.10;;
3217;SDS011;1621;49.702;8.618;2023-07-08T13:38:12;5.37;;;3.33;;
3217;SDS011;1621;49.702;8.618;2023-07-08T13:40:41;6.63;;;3.30;;
3217;SDS011;1621;49.702;8.618;2023-07-08T13:43:08;6.00;;;3.30;;
3217;SDS011;1621;49.702;8.618;2023-07-08T13:45:34;7.10;;;3.50;;
3217;SDS011;1621;49.702;8.618;2023-07-08T13:48:08;6.20;;;3.83;;
3217;SDS011;1621;49.702;8.618;2023-07-08T13:50:39;5.63;;;3.77;;
3217;SDS011;1621;49.702;8.618;2023-07-08T13:53:16;5.47;;;3.50;;
3217;SDS011;1621;49.702;8.618;2023-07-08T13:55:42;5.97;;;3.33;;
3217;SDS011;1621;49.702;8.618;2023-07-08T13:58:13;4.43;;;2.80;;
3217;SDS011;1621;49.702;8.618;2023-07-08T14:00:40;7.60;;;3.40;;
3217;SDS011;1621;49.702;8.618;2023-07-08T14:03:08;6.10;;;3.83;;
3217;SDS011;1621;49.702;8.618;2023-07-08T14:05:36;5.50;;;3.10;;
3217;SDS011;1621;49.702;8.618;2023-07-08T14:08:04;7.13;;;3.67;;
3217;SDS011;1621;49.702;8.618;2023-07-08T14:10:30;5.77;;;3.70;;
3217;SDS011;1621;49.702;8.618;2023-07-08T14:12:57;8.50;;;3.83;;
3217;SDS011;1621;49.702;8.618;2023-07-08T14:15:23;11.33;;;4.73;;
3217;SDS011;1621;49.702;8.618;2023-07-08T14:17:49;6.03;;;3.80;;
3217;SDS011;1621;49.702;8.618;2023-07-08T14:20:17;5.30;;;3.17;;
3217;SDS011;1621;49.702;8.618;2023-07-08T14:22:44;4.30;;;3.27;;
3217;SDS011;1621;49.702;8.618;2023-07-08T14:25:10;5.50;;;3.97;;
3217;SDS011;1621;49.702;8.618;2023-07-08T14:27:39;5.57;;;3.90;;
3217;SDS011;1621;49.702;8.618;2023-07-08T14:30:08;7.67;;;3.47;;
3217;SDS011;1621;49.702;8.618;2023-07-08T14:32:35;6.97;;;4.20;;
3217;SDS011;1621;49.702;8.618;2023-07-08T14:35:08;5.93;;;4.00;;
3217;SDS011;1621;49.702;8.618;2023-07-08T14:37:38;7.60;;;4.27;;
3217;SDS011;1621;49.702;8.618;2023-07-08T14:40:10;9.33;;;3.80;;
3217;SDS011;1621;49.702;8.618;2023-07-08T14:42:38;5.20;;;3.90;;
3217;SDS011;1621;49.702;8.618;2023-07-08T14:45:04;6.97;;;4.27;;
3217;SDS011;1621;49.702;8.618;2023-07-08T14:47:33;8.17;;;4.37;;
3217;SDS011;1621;49.702;8.618;2023-07-08T14:49:59;9.23;;;4.47;;
3217;SDS011;1621;49.702;8.618;2023-07-08T14:52:26;11.73;;;4.80;;
3217;SDS011;1621;49.702;8.618;2023-07-08T14:54:53;11.10;;;4.30;;
3217;SDS011;1621;49.702;8.618;2023-07-08T14:57:25;6.20;;;3.57;;
3217;SDS011;1621;49.702;8.618;2023-07-08T14:59:54;6.13;;;3.80;;
3217;SDS011;1621;49.702;8.618;2023-07-08T15:02:21;7.23;;;4.20;;
3217;SDS011;1621;49.702;8.618;2023-07-08T15:04:47;6.23;;;3.50;;
3217;SDS011;1621;49.702;8.618;2023-07-08T15:07:14;7.23;;;4.30;;
3217;SDS011;1621;49.702;8.618;2023-07-08T15:09:40;5.03;;;3.80;;
3217;SDS011;1621;49.702;8.618;2023-07-08T15:12:10;9.30;;;4.13;;
3217;SDS011;1621;49.702;8.618;2023-07-08T15:14:36;5.90;;;3.73;;